Main page
METAR-TAF:

METAR-TAF

Airports :

Ronneby Airport

Ronneby, Sweden

latitude: 56-16N, longitude: 015-17E, elevation: 58 m

Current weather observation

The report was made 25 minutes ago, at 16:50 UTC
Wind 6 kt from the South/Southwest, varying between South and West/Southwest
Temperature 21°C
Humidity 69%
Pressure 1013 hPa
Visibility 10 km or more
no clouds below 1500 m and no cumulonimbus

METAR: ESDF 231650Z 20006KT 180V240 CAVOK 21/15 Q1013

Time: 19:15 (17:15 UTC)

Forecast

The report was made 2 hours and 45 minutes ago, at 14:30 UTC
Forecast valid from 23 at 15 UTC to 23 at 18 UTC
Wind 8 kt from the Southwest
Visibility 10 km or more
no clouds below 1500 m and no cumulonimbus

TAF: ESDF 231430Z 2315/2318 23008KT CAVOK

Weather observations and forecasts of more than 4000 airports (METAR and TAF reports).

The available stations are represented by yellow and red dots on the map.

Hover mouse over dot to see the name of the station.

Then click to see weather observations and forecasts.

To change the map : click on the green buttons with a black cross to zoom in, on the green button with a dash to zoom out, or on the green arrows for adjacent maps.


METAR-TAF: